Appleton, Illinois
Current Conditions -  °F | °C
As of 7:15 PM on Thursday 27 Nov 2014 (Local Time) from KGBG Reporting Station
Clear Clear  
Wind Chill:   Ceiling: Unl
Heat Index:   Visibility: 10mi
Dew Point:   Wind: 0mph
Humidity: 85%   Direction: NA
Pressure: 30.42"   Gusts: NA
Location:  40.9602°N, 90.1517°W
Report Text: KGBG 280115Z AUTO 00000KT 10SM CLR M14/M16 A3042 RMK AO2 T11371157
Loading
Personal Weather Stations






























Interactive Weather Map New forecast layout! Learn more

10-Day Weather Forecast

Advertisements
Track Severe Weather on mobile